createdAt,value
2023-04-14T00:00:36.684Z,2.15
2023-04-14T00:03:04.123Z,2.05
2023-04-14T00:05:31.651Z,2.00
2023-04-14T00:07:58.753Z,1.95
2023-04-14T00:10:26.259Z,2.15
2023-04-14T00:12:53.283Z,1.98
2023-04-14T00:15:20.423Z,2.08
2023-04-14T00:17:47.139Z,2.13
2023-04-14T00:20:13.924Z,2.55
2023-04-14T00:22:40.695Z,2.17
2023-04-14T00:25:07.682Z,1.98
2023-04-14T00:27:34.409Z,1.42
2023-04-14T00:30:01.079Z,2.05
2023-04-14T00:32:27.889Z,1.80
2023-04-14T00:34:54.648Z,1.83
2023-04-14T00:37:21.322Z,2.05
2023-04-14T00:39:48.056Z,1.88
2023-04-14T00:42:14.801Z,1.95
2023-04-14T00:44:41.457Z,2.05
2023-04-14T00:47:08.271Z,2.05
2023-04-14T00:49:36.637Z,1.95
2023-04-14T00:52:04.536Z,2.10
2023-04-14T00:54:33.930Z,2.30
2023-04-14T00:57:01.979Z,2.78
2023-04-14T00:59:29.898Z,2.47
2023-04-14T01:01:57.347Z,2.20
2023-04-14T01:04:33.674Z,2.10
2023-04-14T01:07:07.507Z,2.10
2023-04-14T01:09:34.282Z,1.70
2023-04-14T01:12:09.987Z,1.98
2023-04-14T01:14:47.990Z,1.83
2023-04-14T01:17:32.531Z,1.88
2023-04-14T01:20:11.547Z,1.90
2023-04-14T01:22:48.158Z,1.85
2023-04-14T01:25:22.330Z,1.85
2023-04-14T01:28:10.667Z,1.85
2023-04-14T01:31:02.348Z,2.30
2023-04-14T01:33:32.916Z,1.95
2023-04-14T01:38:36.013Z,2.15
2023-04-14T01:41:08.614Z,2.15
2023-04-14T01:43:40.044Z,2.40
2023-04-14T01:46:13.442Z,2.08
2023-04-14T01:48:41.866Z,1.88
2023-04-14T01:51:10.042Z,1.83
2023-04-14T01:53:40.072Z,2.33
2023-04-14T01:56:09.327Z,2.47
2023-04-14T01:58:37.450Z,2.50
2023-04-14T02:01:05.358Z,2.13
2023-04-14T02:03:33.395Z,1.90
2023-04-14T02:06:04.398Z,2.20
2023-04-14T02:08:32.921Z,2.22
2023-04-14T02:11:02.022Z,2.00
2023-04-14T02:13:30.496Z,2.22
2023-04-14T02:15:59.219Z,2.00
2023-04-14T02:18:27.259Z,2.55
2023-04-14T02:20:56.351Z,2.20
2023-04-14T02:23:23.058Z,2.70
2023-04-14T02:26:00.662Z,1.80
2023-04-14T02:28:32.112Z,2.10
2023-04-14T02:31:01.235Z,2.15
2023-04-14T02:33:32.026Z,1.77
2023-04-14T02:36:09.753Z,2.05
2023-04-14T02:38:42.021Z,2.20
2023-04-14T02:41:14.848Z,1.90
2023-04-14T02:43:47.443Z,2.33
2023-04-14T02:46:17.833Z,2.80
2023-04-14T02:48:46.257Z,2.53
2023-04-14T02:51:14.494Z,2.88
2023-04-14T02:53:41.484Z,2.78
2023-04-14T02:56:08.712Z,2.78
2023-04-14T02:58:36.904Z,2.75
2023-04-14T03:01:03.958Z,2.45
2023-04-14T03:03:37.384Z,2.83
2023-04-14T03:06:07.106Z,2.20
2023-04-14T03:08:35.400Z,2.33
2023-04-14T03:11:02.790Z,2.70
2023-04-14T03:13:33.474Z,3.00
2023-04-14T03:16:00.657Z,2.92
2023-04-14T03:18:28.047Z,2.72
2023-04-14T03:20:55.938Z,2.85
2023-04-14T03:23:25.235Z,2.40
2023-04-14T03:25:53.322Z,2.38
2023-04-14T03:28:23.523Z,3.25
2023-04-14T03:30:52.716Z,2.67
2023-04-14T03:33:23.602Z,2.67
2023-04-14T03:35:53.578Z,2.50
2023-04-14T03:38:21.290Z,3.13
2023-04-14T03:40:49.152Z,3.15
2023-04-14T03:43:20.113Z,2.80
2023-04-14T03:45:49.332Z,2.35
2023-04-14T03:48:19.031Z,2.97
2023-04-14T03:50:48.375Z,2.45
2023-04-14T03:53:18.087Z,2.42
2023-04-14T03:55:46.562Z,3.28
2023-04-14T03:58:15.810Z,2.78
2023-04-14T04:00:43.341Z,2.92
2023-04-14T04:03:11.108Z,2.65
2023-04-14T04:05:40.864Z,2.58
2023-04-14T04:08:09.469Z,3.58
2023-04-14T04:10:37.692Z,2.85
2023-04-14T04:13:10.715Z,2.60
2023-04-14T04:15:40.810Z,2.67
2023-04-14T04:18:08.703Z,3.20
2023-04-14T04:20:38.624Z,3.08
2023-04-14T04:23:08.424Z,2.97
2023-04-14T04:25:38.183Z,2.88
2023-04-14T04:28:05.117Z,2.80
2023-04-14T04:30:33.077Z,2.72
2023-04-14T04:33:03.637Z,3.67
2023-04-14T04:35:32.328Z,3.80
2023-04-14T04:38:01.185Z,3.10
2023-04-14T04:40:27.944Z,2.65
2023-04-14T04:42:54.651Z,3.00
2023-04-14T04:45:43.991Z,3.17
2023-04-14T04:48:10.815Z,2.97
2023-04-14T04:50:37.569Z,2.88
2023-04-14T04:53:04.280Z,2.75
2023-04-14T04:55:30.945Z,4.15
2023-04-14T04:57:58.037Z,4.30
2023-04-14T05:00:26.105Z,3.33
2023-04-14T05:02:52.886Z,2.78
2023-04-14T05:05:19.639Z,3.13
2023-04-14T05:07:48.464Z,3.45
2023-04-14T05:10:15.236Z,3.42
2023-04-14T05:12:41.971Z,2.95
2023-04-14T05:15:09.692Z,3.00
2023-04-14T05:17:37.135Z,3.22
2023-04-14T05:20:05.724Z,3.47
2023-04-14T05:22:33.031Z,2.88
2023-04-14T05:24:59.680Z,3.53
2023-04-14T05:27:26.428Z,3.45
2023-04-14T05:29:53.146Z,3.60
2023-04-14T05:32:21.551Z,3.55
2023-04-14T05:34:48.402Z,3.65
2023-04-14T05:37:15.124Z,3.35
2023-04-14T05:39:41.940Z,3.85
2023-04-14T05:42:08.741Z,3.53
2023-04-14T05:44:35.536Z,3.15
2023-04-14T05:47:02.480Z,4.03
2023-04-14T05:49:29.501Z,4.43
2023-04-14T05:51:56.610Z,3.75
2023-04-14T05:54:25.715Z,3.60
2023-04-14T05:56:52.507Z,3.97
2023-04-14T05:59:19.211Z,4.20
2023-04-14T06:01:45.974Z,3.42
2023-04-14T06:04:12.760Z,3.63
2023-04-14T06:06:39.676Z,3.72
2023-04-14T06:09:06.592Z,3.72
2023-04-14T06:11:33.308Z,4.10
2023-04-14T06:14:02.034Z,5.63
2023-04-14T06:16:29.096Z,6.07
2023-04-14T06:18:55.828Z,5.38
2023-04-14T06:21:22.676Z,4.32
2023-04-14T06:23:49.503Z,4.05
2023-04-14T06:26:16.378Z,3.47
2023-04-14T06:28:43.962Z,3.95
2023-04-14T06:31:11.195Z,3.70
2023-04-14T06:33:37.884Z,3.95
2023-04-14T06:36:04.694Z,4.70
2023-04-14T06:38:31.374Z,4.25
2023-04-14T06:40:57.996Z,5.05
2023-04-14T06:43:24.712Z,5.38
2023-04-14T06:45:51.468Z,5.22
2023-04-14T06:48:18.100Z,5.05
2023-04-14T06:50:51.730Z,4.47
2023-04-14T06:53:18.291Z,3.33
2023-04-14T06:55:44.885Z,3.63
2023-04-14T06:58:11.466Z,3.38
2023-04-14T07:00:38.034Z,3.30
2023-04-14T07:03:04.764Z,3.75
2023-04-14T07:05:37.261Z,3.65
2023-04-14T07:08:06.744Z,3.70
2023-04-14T07:10:35.652Z,3.00
2023-04-14T07:13:02.281Z,3.42
2023-04-14T07:15:29.949Z,3.25
2023-04-14T07:17:59.812Z,3.47
2023-04-14T07:20:27.054Z,2.95
2023-04-14T07:22:53.696Z,3.08
2023-04-14T07:25:23.124Z,3.17
2023-04-14T07:28:00.261Z,2.95
2023-04-14T07:30:33.107Z,3.22
2023-04-14T07:33:02.101Z,3.30
2023-04-14T07:35:28.843Z,2.90
2023-04-14T07:38:00.914Z,3.10
2023-04-14T07:40:27.526Z,2.97
2023-04-14T07:42:54.125Z,2.88
2023-04-14T07:45:23.843Z,3.10
2023-04-14T07:47:52.126Z,3.13
2023-04-14T07:50:19.881Z,2.72
2023-04-14T07:52:49.751Z,2.80
2023-04-14T07:55:16.690Z,3.05
2023-04-14T07:57:43.399Z,2.70
2023-04-14T08:00:10.628Z,2.88
2023-04-14T08:05:21.345Z,2.60
2023-04-14T08:07:49.408Z,2.72
2023-04-14T08:10:15.978Z,2.65
2023-04-14T08:12:49.992Z,2.70
2023-04-14T08:15:19.349Z,2.65
2023-04-14T08:17:46.107Z,3.40
2023-04-14T08:20:12.890Z,3.20
2023-04-14T08:22:39.516Z,2.58
2023-04-14T08:25:06.594Z,2.60
2023-04-14T08:27:36.617Z,2.42
2023-04-14T08:30:03.427Z,2.33
2023-04-14T08:32:30.044Z,2.78
2023-04-14T08:35:35.668Z,2.67
2023-04-14T08:37:49.094Z,2.70
2023-04-14T08:40:17.642Z,2.45
2023-04-14T08:42:47.146Z,2.50
2023-04-14T08:45:19.082Z,3.13
2023-04-14T08:47:47.310Z,2.95
2023-04-14T08:50:18.359Z,2.92
2023-04-14T08:52:46.983Z,2.60
2023-04-14T08:55:15.460Z,2.45
2023-04-14T08:57:46.465Z,2.35
2023-04-14T09:00:17.042Z,2.95
2023-04-14T09:02:47.016Z,2.35
2023-04-14T09:05:18.062Z,2.30
2023-04-14T09:07:45.060Z,2.30
2023-04-14T09:10:12.117Z,2.20
2023-04-14T09:12:41.675Z,2.63
2023-04-14T09:15:09.236Z,2.53
2023-04-14T09:17:38.829Z,2.10
2023-04-14T09:20:35.683Z,2.78
2023-04-14T09:22:53.350Z,2.42
2023-04-14T09:25:23.885Z,2.30
2023-04-14T09:27:50.467Z,2.30
2023-04-14T09:30:23.088Z,2.30
2023-04-14T09:32:56.833Z,2.83
2023-04-14T09:35:44.652Z,2.38
2023-04-14T09:38:11.456Z,2.53
2023-04-14T09:40:42.579Z,2.03
2023-04-14T09:43:22.182Z,2.28
2023-04-14T09:45:48.869Z,2.65
2023-04-14T09:48:15.599Z,2.25
2023-04-14T09:51:03.119Z,1.83
2023-04-14T09:53:34.714Z,2.30
2023-04-14T09:56:06.189Z,2.47
2023-04-14T09:58:37.696Z,2.20
2023-04-14T10:01:05.804Z,3.42
2023-04-14T10:03:43.385Z,2.40
2023-04-14T10:06:20.012Z,2.38
2023-04-14T10:08:57.046Z,2.40
2023-04-14T10:11:27.394Z,2.33
2023-04-14T10:13:59.182Z,2.33
2023-04-14T10:16:27.206Z,2.50
2023-04-14T10:18:54.722Z,2.42
2023-04-14T10:21:24.495Z,2.72
2023-04-14T10:23:52.086Z,2.22
2023-04-14T10:26:19.757Z,2.83
2023-04-14T10:28:51.737Z,2.70
2023-04-14T10:31:26.398Z,2.97
2023-04-14T10:33:53.999Z,2.47
2023-04-14T10:36:25.380Z,2.42
2023-04-14T10:39:00.093Z,2.35
2023-04-14T10:41:27.217Z,1.73
2023-04-14T10:43:54.021Z,1.77
2023-04-14T10:46:21.790Z,1.92
2023-04-14T10:48:49.069Z,1.77
2023-04-14T10:51:17.842Z,1.80
2023-04-14T10:53:50.148Z,1.58
2023-04-14T10:56:19.349Z,2.10
2023-04-14T10:58:56.228Z,1.95
2023-04-14T11:01:32.565Z,1.92
2023-04-14T11:04:17.349Z,2.40
2023-04-14T11:06:47.392Z,2.85
2023-04-14T11:09:34.030Z,2.17
2023-04-14T11:12:21.997Z,2.05
2023-04-14T11:14:48.731Z,2.17
2023-04-14T11:17:22.773Z,2.10
2023-04-14T11:19:56.767Z,2.28
2023-04-14T11:22:39.976Z,2.17
2023-04-14T11:25:15.592Z,2.10
2023-04-14T11:27:43.311Z,1.92
2023-04-14T11:30:17.411Z,2.33
2023-04-14T11:32:53.348Z,2.30
2023-04-14T11:35:24.855Z,2.28
2023-04-14T11:37:55.790Z,2.40
2023-04-14T11:40:23.316Z,2.13
2023-04-14T11:42:57.837Z,2.08
2023-04-14T11:45:45.772Z,2.20
2023-04-14T11:48:22.444Z,2.03
2023-04-14T11:50:49.272Z,1.45
2023-04-14T11:53:19.517Z,1.70
2023-04-14T11:55:50.731Z,1.92
2023-04-14T11:58:27.101Z,2.10
2023-04-14T12:00:56.282Z,2.22
2023-04-14T12:03:28.576Z,1.67
2023-04-14T12:06:18.120Z,2.00
2023-04-14T12:08:57.037Z,2.20
2023-04-14T12:11:23.993Z,2.15
2023-04-14T12:13:52.581Z,2.03
2023-04-14T12:16:19.392Z,2.45
2023-04-14T12:18:46.229Z,2.00
2023-04-14T12:21:18.451Z,1.98
2023-04-14T12:23:48.735Z,2.08
2023-04-14T12:26:15.651Z,1.67
2023-04-14T12:28:45.278Z,2.40
2023-04-14T12:31:28.492Z,1.80
2023-04-14T12:34:03.304Z,1.80
2023-04-14T12:36:45.414Z,1.38
2023-04-14T12:39:23.717Z,1.60
2023-04-14T12:41:50.346Z,1.40
2023-04-14T12:44:19.514Z,1.90
2023-04-14T12:46:51.162Z,1.73
2023-04-14T12:49:37.543Z,1.83
2023-04-14T12:52:05.430Z,1.65
2023-04-14T12:55:00.492Z,1.83
2023-04-14T12:57:28.137Z,2.50
2023-04-14T12:59:54.693Z,1.77
2023-04-14T13:02:27.104Z,1.77
2023-04-14T13:04:54.457Z,1.90
2023-04-14T13:07:21.541Z,2.03
2023-04-14T13:09:48.149Z,1.67
2023-04-14T13:12:18.549Z,2.17
2023-04-14T13:14:45.199Z,1.88
2023-04-14T13:17:14.967Z,1.48
2023-04-14T13:19:44.318Z,2.22
2023-04-14T13:22:12.875Z,1.98
2023-04-14T13:24:42.633Z,2.03
2023-04-14T13:27:23.828Z,1.98
2023-04-14T13:29:50.447Z,1.60
2023-04-14T13:32:17.226Z,1.73
2023-04-14T13:34:44.035Z,1.73
2023-04-14T13:37:11.185Z,1.55
2023-04-14T13:39:37.849Z,2.00
2023-04-14T13:42:07.186Z,1.80
2023-04-14T13:44:35.097Z,1.50
2023-04-14T13:47:02.003Z,1.58
2023-04-14T13:49:30.726Z,1.65
2023-04-14T13:52:03.089Z,1.80
2023-04-14T13:54:29.633Z,1.48
2023-04-14T13:57:12.679Z,1.30
2023-04-14T13:59:46.414Z,1.20
2023-04-14T14:02:16.532Z,1.02
2023-04-14T14:04:43.400Z,1.15
2023-04-14T14:07:10.250Z,1.20
2023-04-14T14:09:39.608Z,1.50
2023-04-14T14:12:12.063Z,1.30
2023-04-14T14:14:38.623Z,1.83
2023-04-14T14:17:10.109Z,1.30
2023-04-14T14:19:37.176Z,1.13
2023-04-14T14:22:03.854Z,1.00
2023-04-14T14:24:30.569Z,1.10
2023-04-14T14:26:57.762Z,1.30
2023-04-14T14:29:24.954Z,1.17
2023-04-14T14:31:51.632Z,1.30
2023-04-14T14:34:21.415Z,1.20
2023-04-14T14:36:51.263Z,1.20
2023-04-14T14:39:21.843Z,1.20
2023-04-14T14:41:48.397Z,1.42
2023-04-14T14:44:17.891Z,1.13
2023-04-14T14:46:45.986Z,1.70
2023-04-14T14:49:31.040Z,1.40
2023-04-14T14:51:57.593Z,1.40
2023-04-14T14:54:33.338Z,1.27
2023-04-14T14:57:01.350Z,1.10
2023-04-14T14:59:31.502Z,1.25
2023-04-14T15:01:58.177Z,1.15
2023-04-14T15:04:27.699Z,1.15
2023-04-14T15:07:00.779Z,1.40
2023-04-14T15:09:27.417Z,1.30
2023-04-14T15:11:54.162Z,1.55
2023-04-14T15:14:20.834Z,1.50
2023-04-14T15:16:49.471Z,1.80
2023-04-14T15:19:17.114Z,1.20
2023-04-14T15:21:46.866Z,1.80
2023-04-14T15:24:19.458Z,1.65
2023-04-14T15:26:49.588Z,1.70
2023-04-14T15:29:16.592Z,1.58
2023-04-14T15:31:46.250Z,1.60
2023-04-14T15:34:18.386Z,1.92
2023-04-14T15:36:51.383Z,2.33
2023-04-14T15:39:18.287Z,2.28
2023-04-14T15:41:50.262Z,2.00
2023-04-14T15:44:19.268Z,2.40
2023-04-14T15:46:46.198Z,1.90
2023-04-14T15:49:14.944Z,2.00
2023-04-14T15:51:41.995Z,2.00
2023-04-14T15:54:11.686Z,1.85
2023-04-14T15:56:45.378Z,1.35
2023-04-14T16:01:53.865Z,1.60
2023-04-14T16:04:20.818Z,1.40
2023-04-14T16:06:47.916Z,1.67
2023-04-14T16:09:14.496Z,3.15
2023-04-14T16:11:41.259Z,2.00
2023-04-14T16:14:07.821Z,3.90
2023-04-14T16:16:34.395Z,3.10
2023-04-14T16:19:04.228Z,1.77
2023-04-14T16:21:30.928Z,1.95
2023-04-14T16:24:01.060Z,1.60
2023-04-14T16:26:30.574Z,1.90
2023-04-14T16:29:00.492Z,1.73
2023-04-14T16:31:33.505Z,1.98
2023-04-14T16:34:00.428Z,1.75
2023-04-14T16:36:27.495Z,1.73
2023-04-14T16:38:54.685Z,1.70
2023-04-14T16:41:21.566Z,1.83
2023-04-14T16:43:48.208Z,1.60
2023-04-14T16:46:18.129Z,1.67
2023-04-14T16:48:44.766Z,2.10
2023-04-14T16:51:11.563Z,1.70
2023-04-14T16:53:44.238Z,1.75
2023-04-14T16:56:11.602Z,1.88
2023-04-14T16:58:45.147Z,1.70
2023-04-14T17:01:12.006Z,1.60
2023-04-14T17:03:42.291Z,1.70
2023-04-14T17:06:09.032Z,1.88
2023-04-14T17:08:37.673Z,1.98
2023-04-14T17:11:07.089Z,1.80
2023-04-14T17:13:34.473Z,2.22
2023-04-14T17:16:08.319Z,1.90
2023-04-14T17:18:35.774Z,1.92
2023-04-14T17:21:02.696Z,1.80
2023-04-14T17:23:29.288Z,2.25
2023-04-14T17:26:00.039Z,2.28
2023-04-14T17:28:29.463Z,2.30
2023-04-14T17:30:56.062Z,1.90
2023-04-14T17:33:27.003Z,2.22
2023-04-14T17:35:55.109Z,1.77
2023-04-14T17:38:21.731Z,2.22
2023-04-14T17:40:53.207Z,1.98
2023-04-14T17:43:19.801Z,2.25
2023-04-14T17:45:52.377Z,2.33
2023-04-14T17:48:19.358Z,2.00
2023-04-14T17:50:53.823Z,2.55
2023-04-14T17:53:23.597Z,2.20
2023-04-14T17:55:51.329Z,2.20
2023-04-14T17:58:18.319Z,2.50
2023-04-14T18:00:45.254Z,2.20
2023-04-14T18:03:15.173Z,2.13
2023-04-14T18:05:43.533Z,2.30
2023-04-14T18:08:14.906Z,2.40
2023-04-14T18:10:45.911Z,2.05
2023-04-14T18:13:15.199Z,2.10
2023-04-14T18:15:44.909Z,2.17
2023-04-14T18:18:17.709Z,2.55
2023-04-14T18:20:50.426Z,2.45
2023-04-14T18:23:19.529Z,2.85
2023-04-14T18:28:16.026Z,2.20
2023-04-14T18:30:53.103Z,2.10
2023-04-14T18:33:27.393Z,1.92
2023-04-14T18:36:03.225Z,1.85
2023-04-14T18:38:29.887Z,2.33
2023-04-14T18:41:02.756Z,2.20
2023-04-14T18:43:29.332Z,2.58
2023-04-14T18:45:55.904Z,2.35
2023-04-14T18:48:22.965Z,2.53
2023-04-14T18:51:20.600Z,2.70
2023-04-14T18:53:48.043Z,2.53
2023-04-14T18:56:20.060Z,2.30
2023-04-14T18:58:47.076Z,2.83
2023-04-14T19:01:13.733Z,2.50
2023-04-14T19:03:42.742Z,2.40
2023-04-14T19:06:11.433Z,2.45
2023-04-14T19:08:38.045Z,2.17
2023-04-14T19:11:07.949Z,2.33
2023-04-14T19:13:42.092Z,2.30
2023-04-14T19:16:13.963Z,2.15
2023-04-14T19:18:47.511Z,2.38
2023-04-14T19:21:14.128Z,2.70
2023-04-14T19:23:45.490Z,3.00
2023-04-14T19:26:13.447Z,3.10
2023-04-14T19:28:40.294Z,2.13
2023-04-14T19:31:06.923Z,2.65
2023-04-14T19:33:34.402Z,2.20
2023-04-14T19:36:10.951Z,2.30
2023-04-14T19:38:38.093Z,2.80
2023-04-14T19:41:13.532Z,2.75
2023-04-14T19:43:40.164Z,3.30
2023-04-14T19:46:12.596Z,3.45
2023-04-14T19:48:39.602Z,2.90
2023-04-14T19:51:06.256Z,2.83
2023-04-14T19:53:32.809Z,2.80
2023-04-14T19:56:05.366Z,2.90
2023-04-14T19:58:32.797Z,2.65
2023-04-14T20:01:00.869Z,2.58
2023-04-14T20:03:28.014Z,2.35
2023-04-14T20:05:57.832Z,2.17
2023-04-14T20:08:26.237Z,2.42
2023-04-14T20:10:55.858Z,2.33
2023-04-14T20:13:30.373Z,3.50
2023-04-14T20:15:59.471Z,2.58
2023-04-14T20:18:27.646Z,2.30
2023-04-14T20:20:57.228Z,3.28
2023-04-14T20:23:27.047Z,2.78
2023-04-14T20:25:59.570Z,3.80
2023-04-14T20:28:26.529Z,4.00
2023-04-14T20:30:54.342Z,4.07
2023-04-14T20:33:21.835Z,3.38
2023-04-14T20:35:49.238Z,3.35
2023-04-14T20:38:19.199Z,2.95
2023-04-14T20:40:52.873Z,2.95
2023-04-14T20:43:19.961Z,2.50
2023-04-14T20:45:55.879Z,3.10
2023-04-14T20:48:22.639Z,3.42
2023-04-14T20:50:50.021Z,3.83
2023-04-14T20:53:17.755Z,4.10
2023-04-14T20:55:44.375Z,4.43
2023-04-14T20:58:10.937Z,3.80
2023-04-14T21:00:37.573Z,4.00
2023-04-14T21:03:04.472Z,3.75
2023-04-14T21:05:31.200Z,3.65
2023-04-14T21:07:57.851Z,4.18
2023-04-14T21:10:24.398Z,3.42
2023-04-14T21:15:26.999Z,3.90
2023-04-14T21:15:53.735Z,4.40
2023-04-14T21:18:26.886Z,4.63
2023-04-14T21:20:53.443Z,4.30
2023-04-14T21:23:20.703Z,4.57
2023-04-14T21:25:50.274Z,4.85
2023-04-14T21:28:19.656Z,4.53
2023-04-14T21:30:46.268Z,5.05
2023-04-14T21:33:13.025Z,4.88
2023-04-14T21:35:39.661Z,5.32
2023-04-14T21:38:12.734Z,6.07
2023-04-14T21:40:52.009Z,6.13
2023-04-14T21:43:18.602Z,5.60
2023-04-14T21:45:45.338Z,5.75
2023-04-14T21:48:12.577Z,5.20
2023-04-14T21:50:43.277Z,4.65
2023-04-14T21:53:15.917Z,4.70
2023-04-14T21:55:42.716Z,4.88
2023-04-14T21:58:09.392Z,4.30
2023-04-14T22:00:37.192Z,4.07
2023-04-14T22:03:07.365Z,4.20
2023-04-14T22:05:34.078Z,5.10
2023-04-14T22:08:00.625Z,4.90
2023-04-14T22:10:32.317Z,5.00
2023-04-14T22:13:00.285Z,4.47
2023-04-14T22:15:35.959Z,4.28
2023-04-14T22:18:02.571Z,4.05
2023-04-14T22:20:29.802Z,4.47
2023-04-14T22:22:56.932Z,4.90
2023-04-14T22:25:23.478Z,4.65
2023-04-14T22:27:50.188Z,5.43
2023-04-14T22:30:16.825Z,4.60
2023-04-14T22:32:43.526Z,5.18
2023-04-14T22:35:12.848Z,4.72
2023-04-14T22:37:39.429Z,4.72
2023-04-14T22:40:09.643Z,4.30
2023-04-14T22:42:39.022Z,5.07
2023-04-14T22:45:08.805Z,4.82
2023-04-14T22:47:42.814Z,4.10
2023-04-14T22:50:09.761Z,4.38
2023-04-14T22:52:37.488Z,4.93
2023-04-14T22:55:04.396Z,4.50
2023-04-14T22:57:30.986Z,4.38
2023-04-14T22:59:57.586Z,5.35
2023-04-14T23:02:27.579Z,4.53
2023-04-14T23:04:54.326Z,4.38
2023-04-14T23:07:23.005Z,4.70
2023-04-14T23:09:49.587Z,5.03
2023-04-14T23:12:16.963Z,4.28
2023-04-14T23:14:43.505Z,4.70
2023-04-14T23:17:10.069Z,5.45
2023-04-14T23:19:36.853Z,4.25
2023-04-14T23:22:07.311Z,5.10
2023-04-14T23:24:33.876Z,4.60
2023-04-14T23:27:00.439Z,5.05
2023-04-14T23:29:30.792Z,4.13
2023-04-14T23:31:57.582Z,4.47
2023-04-14T23:34:24.291Z,4.95
2023-04-14T23:36:53.698Z,4.95
2023-04-14T23:39:20.260Z,5.18
2023-04-14T23:41:47.576Z,5.35
2023-04-14T23:44:16.238Z,5.07
2023-04-14T23:46:43.052Z,5.00
2023-04-14T23:49:23.360Z,4.57
2023-04-14T23:52:03.736Z,5.22
2023-04-14T23:54:33.543Z,4.38
2023-04-14T23:57:00.226Z,5.00
2023-04-14T23:59:39.908Z,5.60
